Time;durP1;ratioP1;P1;durP2;ratioP2;P2;SDS_P1;SDS_P2;PMS_P1;PMS_P2;Temp;Humidity;BMP_temperature;BMP_pressure;BME280_temperature;BME280_humidity;BME280_pressure;Samples;Min_cycle;Max_cycle;Signal;HPM_P1;HPM_P2
2023/06/08 00:01:25;;;;;;;;;;;;;;;;;;5084784;28;20349;-49
2023/06/08 00:03:52;;;;;;;;;;;;;;;;;;5084504;28;19956;-50
2023/06/08 00:06:20;;;;;;;;;;;;;;;;;;5087700;28;20037;-49
2023/06/08 00:08:46;;;;;;;;;;;;;;;;;;5085605;28;19920;-49
2023/06/08 00:11:12;;;;;;;;;;;;;;;;;;5087233;28;19908;-49
2023/06/08 00:13:38;;;;;;;;;;;;;;;;;;5086863;28;20310;-50
2023/06/08 00:16:04;;;;;;;;;;;;;;;;;;5088367;28;20297;-49
2023/06/08 00:18:30;;;;;;;;;;;;;;;;;;5087189;28;19912;-49
2023/06/08 00:20:57;;;;;;;;;;;;;;;;;;5087992;28;19916;-49
2023/06/08 00:23:22;;;;;;;;;;;;;;;;;;5088861;28;19992;-50
2023/06/08 00:25:48;;;;;;;;;;;;;;;;;;5089673;28;19967;-50
2023/06/08 00:28:15;;;;;;;;;;;;;;;;;;5088530;28;19995;-49
2023/06/08 00:30:41;;;;;;;;;;;;;;;;;;5085274;28;19939;-50
2023/06/08 00:33:07;;;;;;;;;;;;;;;;;;5070273;28;19931;-50
2023/06/08 00:35:33;;;;;;;;;;;;;;;;;;5088479;28;19920;-50
2023/06/08 00:37:59;;;;;;;;;;;;;;;;;;5087450;28;19951;-50
2023/06/08 00:40:25;;;;;;;;;;;;;;;;;;5091871;28;20301;-50
2023/06/08 00:42:51;;;;;;;;;;;;;;;;;;5088523;28;20425;-50
2023/06/08 00:45:17;;;;;;;;;;;;;;;;;;5072795;28;20299;-50
2023/06/08 00:47:43;;;;;;;;;;;;;;;;;;5087239;28;19963;-50
2023/06/08 00:50:09;;;;;;;;;;;;;;;;;;5071704;28;19960;-50
2023/06/08 00:52:35;;;;;;;;;;;;;;;;;;5071590;28;20002;-50
2023/06/08 00:55:01;;;;;;;;;;;;;;;;;;5088635;28;19995;-50
2023/06/08 00:57:28;;;;;;;;;;;;;;;;;;5086904;28;19959;-50
2023/06/08 00:59:55;;;;;;;;;;;;;;;;;;5089466;28;20317;-49
2023/06/08 01:02:21;;;;;;;;;;;;;;;;;;5087819;28;20316;-50
2023/06/08 01:04:50;;;;;;;;;;;;;;;;;;5089401;28;19916;-50
2023/06/08 01:07:19;;;;;;;;;;;;;;;;;;5089262;28;19927;-50
2023/06/08 01:09:45;;;;;;;;;;;;;;;;;;5086821;28;19920;-50
2023/06/08 01:12:11;;;;;;;;;;;;;;;;;;5084839;28;19952;-49
2023/06/08 01:14:38;;;;;;;;;;;;;;;;;;5087421;28;19955;-50
2023/06/08 01:17:04;;;;;;;;;;;;;;;;;;5088012;28;20019;-49
2023/06/08 01:19:33;;;;;;;;;;;;;;;;;;5069780;28;19935;-49
2023/06/08 01:22:00;;;;;;;;;;;;;;;;;;5070753;28;20285;-50
2023/06/08 01:24:30;;;;;;;;;;;;;;;;;;5089154;28;19927;-49
2023/06/08 01:26:59;;;;;;;;;;;;;;;;;;5087848;28;19916;-50
2023/06/08 01:29:27;;;;;;;;;;;;;;;;;;5088158;28;19913;-49
2023/06/08 01:31:53;;;;;;;;;;;;;;;;;;5085906;28;19978;-50
2023/06/08 01:34:19;;;;;;;;;;;;;;;;;;5088581;28;19947;-50
2023/06/08 01:36:45;;;;;;;;;;;;;;;;;;5088519;28;19919;-49
2023/06/08 01:39:11;;;;;;;;;;;;;;;;;;5086905;28;20006;-49
2023/06/08 01:41:40;;;;;;;;;;;;;;;;;;5087247;28;19950;-49
2023/06/08 01:44:06;;;;;;;;;;;;;;;;;;5085210;28;19916;-50
2023/06/08 01:46:32;;;;;;;;;;;;;;;;;;5085953;28;19931;-49
2023/06/08 01:49:01;;;;;;;;;;;;;;;;;;5086619;28;20366;-49
2023/06/08 01:51:27;;;;;;;;;;;;;;;;;;5086356;28;19912;-49
2023/06/08 01:53:53;;;;;;;;;;;;;;;;;;5087325;28;20076;-49
2023/06/08 01:56:19;;;;;;;;;;;;;;;;;;5084851;28;20276;-49
2023/06/08 01:58:45;;;;;;;;;;;;;;;;;;5089708;28;20504;-49
2023/06/08 02:01:11;;;;;;;;;;;;;;;;;;5088582;28;20229;-49
2023/06/08 02:03:37;;;;;;;;;;;;;;;;;;5087389;28;20012;-48
2023/06/08 02:06:02;;;;;;;;;;;;;;;;;;5086796;28;20013;-49
2023/06/08 02:08:28;;;;;;;;;;;;;;;;;;5087875;28;20347;-48
2023/06/08 02:10:54;;;;;;;;;;;;;;;;;;5085860;28;20034;-46
2023/06/08 02:13:20;;;;;;;;;;;;;;;;;;5078211;28;19963;-50
2023/06/08 02:15:46;;;;;;;;;;;;;;;;;;5085697;28;19955;-50
2023/06/08 02:18:13;;;;;;;;;;;;;;;;;;5087853;28;20027;-50
2023/06/08 02:20:39;;;;;;;;;;;;;;;;;;5068631;28;19942;-50
2023/06/08 02:23:05;;;;;;;;;;;;;;;;;;5086940;28;19908;-49
2023/06/08 02:25:31;;;;;;;;;;;;;;;;;;5087769;28;19966;-48
2023/06/08 02:27:57;;;;;;;;;;;;;;;;;;5085717;28;19964;-48
2023/06/08 02:30:23;;;;;;;;;;;;;;;;;;5085697;28;19927;-48
2023/06/08 02:32:53;;;;;;;;;;;;;;;;;;5086371;28;19913;-48
2023/06/08 02:35:19;;;;;;;;;;;;;;;;;;5086507;28;20290;-48
2023/06/08 02:37:46;;;;;;;;;;;;;;;;;;5086718;28;19922;-50
2023/06/08 02:40:12;;;;;;;;;;;;;;;;;;5085300;28;20321;-47
2023/06/08 02:42:38;;;;;;;;;;;;;;;;;;5085141;28;20006;-49
2023/06/08 02:45:04;;;;;;;;;;;;;;;;;;5083478;28;19916;-49
2023/06/08 02:47:30;;;;;;;;;;;;;;;;;;5085777;28;20402;-47
2023/06/08 02:49:56;;;;;;;;;;;;;;;;;;5087164;28;19923;-49
2023/06/08 02:52:22;;;;;;;;;;;;;;;;;;5085539;28;20434;-48
2023/06/08 02:54:48;;;;;;;;;;;;;;;;;;5082902;28;20318;-49
2023/06/08 02:57:14;;;;;;;;;;;;;;;;;;5084883;28;20084;-48
2023/06/08 02:59:41;;;;;;;;;;;;;;;;;;5086456;28;19930;-48
2023/06/08 03:02:07;;;;;;;;;;;;;;;;;;5084755;28;19977;-49
2023/06/08 03:04:33;;;;;;;;;;;;;;;;;;5084342;28;19919;-47
2023/06/08 03:07:01;;;;;;;;;;;;;;;;;;5059058;28;20403;-49
2023/06/08 03:09:30;;;;;;;;;;;;;;;;;;5086639;28;19992;-48
2023/06/08 03:11:56;;;;;;;;;;;;;;;;;;5090027;28;19968;-49
2023/06/08 03:14:28;;;;;;;;;;;;;;;;;;5083370;28;20427;-48
2023/06/08 03:16:56;;;;;;;;;;;;;;;;;;5084708;28;20058;-49
2023/06/08 03:19:22;;;;;;;;;;;;;;;;;;5085634;28;19912;-48
2023/06/08 03:21:49;;;;;;;;;;;;;;;;;;5084411;28;20010;-49
2023/06/08 03:24:16;;;;;;;;;;;;;;;;;;5086960;28;20390;-48
2023/06/08 03:26:42;;;;;;;;;;;;;;;;;;5086275;28;19935;-48
2023/06/08 03:29:08;;;;;;;;;;;;;;;;;;5081851;28;19963;-48
2023/06/08 03:31:36;;;;;;;;;;;;;;;;;;5066542;28;20021;-48
2023/06/08 03:34:02;;;;;;;;;;;;;;;;;;5086424;28;19916;-49
2023/06/08 03:36:33;;;;;;;;;;;;;;;;;;5085888;28;19966;-48
2023/06/08 03:38:59;;;;;;;;;;;;;;;;;;5086552;28;19918;-49
2023/06/08 03:41:26;;;;;;;;;;;;;;;;;;5087093;28;20033;-49
2023/06/08 03:43:52;;;;;;;;;;;;;;;;;;5084313;28;19965;-49
2023/06/08 03:46:18;;;;;;;;;;;;;;;;;;5083375;28;20343;-49
2023/06/08 03:48:45;;;;;;;;;;;;;;;;;;5085187;28;19924;-49
2023/06/08 03:51:10;;;;;;;;;;;;;;;;;;5084518;28;19912;-48
2023/06/08 03:53:36;;;;;;;;;;;;;;;;;;5084899;28;19970;-49
2023/06/08 03:56:02;;;;;;;;;;;;;;;;;;5085730;28;19947;-49
2023/06/08 03:58:29;;;;;;;;;;;;;;;;;;5084828;28;19923;-49
2023/06/08 04:00:56;;;;;;;;;;;;;;;;;;5085287;28;19965;-49
2023/06/08 04:03:25;;;;;;;;;;;;;;;;;;5083968;28;20340;-48
2023/06/08 04:05:50;;;;;;;;;;;;;;;;;;5086010;28;20022;-49
2023/06/08 04:08:17;;;;;;;;;;;;;;;;;;5083591;28;20051;-49
2023/06/08 04:10:43;;;;;;;;;;;;;;;;;;5084565;28;19916;-49
2023/06/08 04:13:09;;;;;;;;;;;;;;;;;;5083825;28;20012;-48
2023/06/08 04:15:35;;;;;;;;;;;;;;;;;;5083927;28;19924;-50
2023/06/08 04:18:02;;;;;;;;;;;;;;;;;;5082030;28;20379;-49
2023/06/08 04:20:28;;;;;;;;;;;;;;;;;;5086764;28;19923;-49
2023/06/08 04:22:53;;;;;;;;;;;;;;;;;;5083928;28;19934;-49
2023/06/08 04:25:24;;;;;;;;;;;;;;;;;;5089708;28;19955;-49
2023/06/08 04:27:51;;;;;;;;;;;;;;;;;;5085482;28;20334;-49
2023/06/08 04:30:17;;;;;;;;;;;;;;;;;;5081434;28;20393;-49
2023/06/08 04:32:43;;;;;;;;;;;;;;;;;;5084625;28;19912;-48
2023/06/08 04:35:09;;;;;;;;;;;;;;;;;;5085470;28;19970;-48
2023/06/08 04:37:35;;;;;;;;;;;;;;;;;;5083143;28;20072;-49
2023/06/08 04:40:03;;;;;;;;;;;;;;;;;;5085953;28;20011;-49
2023/06/08 04:42:29;;;;;;;;;;;;;;;;;;5082876;28;20532;-49
2023/06/08 04:45:00;;;;;;;;;;;;;;;;;;5084520;28;19943;-48
2023/06/08 04:47:29;;;;;;;;;;;;;;;;;;5082359;28;19928;-49
2023/06/08 04:49:55;;;;;;;;;;;;;;;;;;5084305;28;19916;-48
2023/06/08 04:52:21;;;;;;;;;;;;;;;;;;5084560;28;19981;-49
2023/06/08 04:54:50;;;;;;;;;;;;;;;;;;5085845;28;19963;-50
2023/06/08 04:57:19;;;;;;;;;;;;;;;;;;5062639;28;19920;-49
2023/06/08 04:59:45;;;;;;;;;;;;;;;;;;5088253;28;20545;-49
2023/06/08 05:02:11;;;;;;;;;;;;;;;;;;5081118;28;20251;-49
2023/06/08 05:04:37;;;;;;;;;;;;;;;;;;5086460;28;19943;-49
2023/06/08 05:07:03;;;;;;;;;;;;;;;;;;5087941;28;19922;-49
2023/06/08 05:09:29;;;;;;;;;;;;;;;;;;5081108;28;19966;-49
2023/06/08 05:11:55;;;;;;;;;;;;;;;;;;5083160;28;19967;-49
2023/06/08 05:14:20;;;;;;;;;;;;;;;;;;5082984;28;20271;-49
2023/06/08 05:16:46;;;;;;;;;;;;;;;;;;5085824;28;19916;-49
2023/06/08 05:19:13;;;;;;;;;;;;;;;;;;5086845;28;19962;-50
2023/06/08 05:21:40;;;;;;;;;;;;;;;;;;5085479;28;19916;-48
2023/06/08 05:24:05;;;;;;;;;;;;;;;;;;5084024;28;20015;-49
2023/06/08 05:26:31;;;;;;;;;;;;;;;;;;5087623;28;20069;-49
2023/06/08 05:28:57;;;;;;;;;;;;;;;;;;5083413;28;19977;-48
2023/06/08 05:31:24;;;;;;;;;;;;;;;;;;5083834;28;20353;-49
2023/06/08 05:33:50;;;;;;;;;;;;;;;;;;5084643;28;19926;-49
2023/06/08 05:36:16;;;;;;;;;;;;;;;;;;5066986;28;19916;-49
2023/06/08 05:38:42;;;;;;;;;;;;;;;;;;5083375;28;20317;-49
2023/06/08 05:41:08;;;;;;;;;;;;;;;;;;5083653;28;20378;-49
2023/06/08 05:43:34;;;;;;;;;;;;;;;;;;5082276;28;19920;-49
2023/06/08 05:46:00;;;;;;;;;;;;;;;;;;5074461;28;19964;-49
2023/06/08 05:48:26;;;;;;;;;;;;;;;;;;5079882;28;19989;-49
2023/06/08 05:50:52;;;;;;;;;;;;;;;;;;5075487;28;19959;-49
2023/06/08 05:53:18;;;;;;;;;;;;;;;;;;5081577;28;20048;-49
2023/06/08 05:55:44;;;;;;;;;;;;;;;;;;5081573;28;20113;-49
2023/06/08 05:58:10;;;;;;;;;;;;;;;;;;5077951;28;20178;-50
2023/06/08 06:00:36;;;;;;;;;;;;;;;;;;5081979;28;20283;-50
2023/06/08 06:03:02;;;;;;;;;;;;;;;;;;5084277;28;19915;-47
2023/06/08 06:05:28;;;;;;;;;;;;;;;;;;5083790;28;19970;-48
2023/06/08 06:07:54;;;;;;;;;;;;;;;;;;5079420;28;19960;-48
2023/06/08 06:10:20;;;;;;;;;;;;;;;;;;5081722;28;19963;-48
2023/06/08 06:12:46;;;;;;;;;;;;;;;;;;5079433;28;20489;-48
2023/06/08 06:15:12;;;;;;;;;;;;;;;;;;5076028;28;20331;-52
2023/06/08 06:17:38;;;;;;;;;;;;;;;;;;5082999;28;20351;-52
2023/06/08 06:20:05;;;;;;;;;;;;;;;;;;5078594;28;20207;-52
2023/06/08 06:22:31;;;;;;;;;;;;;;;;;;5065154;28;20015;-53
2023/06/08 06:24:57;;;;;;;;;;;;;;;;;;5077856;28;19920;-53
2023/06/08 06:27:23;;;;;;;;;;;;;;;;;;5060530;28;20371;-53
2023/06/08 06:29:49;;;;;;;;;;;;;;;;;;5080851;28;20010;-53
2023/06/08 06:32:15;;;;;;;;;;;;;;;;;;5076562;28;20009;-53
2023/06/08 06:34:41;;;;;;;;;;;;;;;;;;5080536;28;20053;-53
2023/06/08 06:37:07;;;;;;;;;;;;;;;;;;5079441;28;20338;-53
2023/06/08 06:39:33;;;;;;;;;;;;;;;;;;5063281;28;20640;-53
2023/06/08 06:42:00;;;;;;;;;;;;;;;;;;5060282;28;19966;-53
2023/06/08 06:44:26;;;;;;;;;;;;;;;;;;5082149;28;19971;-53
2023/06/08 06:46:52;;;;;;;;;;;;;;;;;;5092907;28;20514;-53
2023/06/08 06:49:18;;;;;;;;;;;;;;;;;;5085264;28;19930;-53
2023/06/08 06:51:44;;;;;;;;;;;;;;;;;;5087818;28;20048;-54
2023/06/08 06:54:10;;;;;;;;;;;;;;;;;;5085830;28;19947;-53
2023/06/08 06:56:36;;;;;;;;;;;;;;;;;;5088206;28;20385;-53
2023/06/08 06:59:02;;;;;;;;;;;;;;;;;;5087795;28;19948;-53
2023/06/08 07:01:30;;;;;;;;;;;;;;;;;;5081375;28;19961;-53
2023/06/08 07:03:56;;;;;;;;;;;;;;;;;;5083416;28;20255;-53
2023/06/08 07:06:24;;;;;;;;;;;;;;;;;;5088113;28;19947;-53
2023/06/08 07:08:50;;;;;;;;;;;;;;;;;;5085261;28;20045;-53
2023/06/08 07:11:16;;;;;;;;;;;;;;;;;;5082244;28;19927;-54
2023/06/08 07:13:42;;;;;;;;;;;;;;;;;;5081243;28;20327;-54
2023/06/08 07:16:08;;;;;;;;;;;;;;;;;;5085921;28;19946;-54
2023/06/08 07:18:34;;;;;;;;;;;;;;;;;;5081245;28;20390;-54
2023/06/08 07:21:01;;;;;;;;;;;;;;;;;;5082891;28;19923;-54
2023/06/08 07:23:27;;;;;;;;;;;;;;;;;;5085545;28;20001;-54
2023/06/08 07:25:53;;;;;;;;;;;;;;;;;;5087266;28;20481;-53
2023/06/08 07:28:19;;;;;;;;;;;;;;;;;;5062597;28;20381;-53
2023/06/08 07:30:45;;;;;;;;;;;;;;;;;;5085270;28;20556;-52
2023/06/08 07:33:10;;;;;;;;;;;;;;;;;;5080553;28;19954;-52
2023/06/08 07:35:36;;;;;;;;;;;;;;;;;;5078942;28;20463;-51
2023/06/08 07:38:03;;;;;;;;;;;;;;;;;;5061117;28;20343;-51
2023/06/08 07:40:29;;;;;;;;;;;;;;;;;;5079486;28;19935;-51
2023/06/08 07:42:55;;;;;;;;;;;;;;;;;;5086440;28;20393;-50
2023/06/08 07:45:21;;;;;;;;;;;;;;;;;;5066773;28;20287;-51
2023/06/08 07:47:47;;;;;;;;;;;;;;;;;;5086110;28;19964;-51
2023/06/08 07:50:13;;;;;;;;;;;;;;;;;;5085695;28;19952;-51
2023/06/08 07:52:39;;;;;;;;;;;;;;;;;;5082027;28;20016;-50
2023/06/08 07:55:05;;;;;;;;;;;;;;;;;;5087523;28;20049;-51
2023/06/08 07:57:31;;;;;;;;;;;;;;;;;;5067578;28;20394;-50
2023/06/08 07:59:57;;;;;;;;;;;;;;;;;;5086421;28;19919;-51
2023/06/08 08:02:23;;;;;;;;;;;;;;;;;;5085335;28;20003;-50
2023/06/08 08:04:49;;;;;;;;;;;;;;;;;;5084570;28;20490;-50
2023/06/08 08:07:15;;;;;;;;;;;;;;;;;;5085809;28;20407;-51
2023/06/08 08:09:41;;;;;;;;;;;;;;;;;;5086941;28;20403;-51
2023/06/08 08:12:07;;;;;;;;;;;;;;;;;;5085306;28;19912;-51
2023/06/08 08:14:33;;;;;;;;;;;;;;;;;;5083862;28;19959;-50
2023/06/08 08:16:59;;;;;;;;;;;;;;;;;;5084265;28;19916;-52
2023/06/08 08:19:26;;;;;;;;;;;;;;;;;;5086632;28;19985;-52
2023/06/08 08:21:52;;;;;;;;;;;;;;;;;;5086108;28;20296;-50
2023/06/08 08:24:18;;;;;;;;;;;;;;;;;;5081052;28;20000;-50
2023/06/08 08:26:44;;;;;;;;;;;;;;;;;;5082677;28;19943;-52
2023/06/08 08:29:09;;;;;;;;;;;;;;;;;;5085059;28;19967;-51
2023/06/08 08:31:36;;;;;;;;;;;;;;;;;;5088777;28;20007;-51
2023/06/08 08:34:02;;;;;;;;;;;;;;;;;;5090299;28;20032;-51
2023/06/08 08:36:28;;;;;;;;;;;;;;;;;;5088108;28;19916;-50
2023/06/08 08:38:54;;;;;;;;;;;;;;;;;;5091270;28;19943;-49
2023/06/08 08:41:20;;;;;;;;;;;;;;;;;;5083536;28;19922;-51
2023/06/08 08:43:46;;;;;;;;;;;;;;;;;;5087660;28;20287;-51
2023/06/08 08:46:12;;;;;;;;;;;;;;;;;;5091101;28;19927;-51
2023/06/08 08:48:38;;;;;;;;;;;;;;;;;;5088788;28;20269;-50
2023/06/08 08:51:04;;;;;;;;;;;;;;;;;;5087861;28;19974;-50
2023/06/08 08:53:30;;;;;;;;;;;;;;;;;;5072710;28;19924;-51
2023/06/08 08:55:57;;;;;;;;;;;;;;;;;;5091710;28;19950;-52
2023/06/08 08:58:23;;;;;;;;;;;;;;;;;;5068289;28;19916;-51
2023/06/08 09:00:50;;;;;;;;;;;;;;;;;;5089486;28;20019;-51
2023/06/08 09:03:15;;;;;;;;;;;;;;;;;;5090278;28;19916;-51
2023/06/08 09:05:43;;;;;;;;;;;;;;;;;;5091310;28;19966;-51
2023/06/08 09:08:09;;;;;;;;;;;;;;;;;;5090481;28;19915;-51
2023/06/08 09:10:35;;;;;;;;;;;;;;;;;;5087029;28;19916;-51
2023/06/08 09:13:01;;;;;;;;;;;;;;;;;;5089710;28;20566;-52
2023/06/08 09:15:28;;;;;;;;;;;;;;;;;;5070423;28;19924;-52
2023/06/08 09:17:54;;;;;;;;;;;;;;;;;;5089043;28;19916;-52
2023/06/08 09:20:20;;;;;;;;;;;;;;;;;;5074429;28;20378;-52
2023/06/08 09:25:41;;;;;;;;;;;;;;;;;;5081512;28;19977;-52
2023/06/08 09:30:52;;;;;;;;;;;;;;;;;;5087590;28;20011;-53
2023/06/08 09:33:20;;;;;;;;;;;;;;;;;;5087992;28;20010;-53
2023/06/08 09:35:46;;;;;;;;;;;;;;;;;;5090877;28;19981;-52
2023/06/08 09:38:16;;;;;;;;;;;;;;;;;;5093788;28;20389;-53
2023/06/08 09:40:42;;;;;;;;;;;;;;;;;;5077230;28;19912;-53
2023/06/08 09:43:08;;;;;;;;;;;;;;;;;;5088180;28;19916;-54
2023/06/08 09:45:35;;;;;;;;;;;;;;;;;;5088045;28;19923;-54
2023/06/08 09:48:02;;;;;;;;;;;;;;;;;;5090014;28;20239;-54
2023/06/08 09:50:28;;;;;;;;;;;;;;;;;;5064772;28;19916;-54
2023/06/08 09:52:54;;;;;;;;;;;;;;;;;;5065020;28;20057;-54
2023/06/08 09:55:21;;;;;;;;;;;;;;;;;;5086184;28;20057;-56
2023/06/08 09:57:47;;;;;;;;;;;;;;;;;;5071751;28;19927;-54
2023/06/08 10:00:14;;;;;;;;;;;;;;;;;;5084175;28;20007;-54
2023/06/08 10:02:40;;;;;;;;;;;;;;;;;;5086640;28;19923;-53
2023/06/08 10:05:06;;;;;;;;;;;;;;;;;;5082898;28;19916;-54
2023/06/08 10:07:35;;;;;;;;;;;;;;;;;;5088378;28;19988;-54
2023/06/08 10:10:01;;;;;;;;;;;;;;;;;;5090048;28;19981;-54
2023/06/08 10:12:27;;;;;;;;;;;;;;;;;;5070148;28;19995;-54
2023/06/08 10:14:54;;;;;;;;;;;;;;;;;;5087972;28;19939;-54
2023/06/08 10:17:19;;;;;;;;;;;;;;;;;;5070615;28;19943;-54
2023/06/08 10:19:46;;;;;;;;;;;;;;;;;;5088339;28;19951;-54
2023/06/08 10:22:12;;;;;;;;;;;;;;;;;;5087205;28;19912;-55
2023/06/08 10:24:38;;;;;;;;;;;;;;;;;;5060821;28;19912;-55
2023/06/08 10:27:05;;;;;;;;;;;;;;;;;;5082066;28;19920;-55
2023/06/08 10:29:31;;;;;;;;;;;;;;;;;;5082012;28;19940;-55
2023/06/08 10:31:57;;;;;;;;;;;;;;;;;;5083610;28;19920;-54
2023/06/08 10:34:23;;;;;;;;;;;;;;;;;;5080892;28;20339;-56
2023/06/08 10:36:50;;;;;;;;;;;;;;;;;;5078388;28;20379;-54
2023/06/08 10:39:17;;;;;;;;;;;;;;;;;;5086185;28;19959;-55
2023/06/08 10:41:43;;;;;;;;;;;;;;;;;;5079104;28;19969;-56
2023/06/08 10:44:09;;;;;;;;;;;;;;;;;;5078201;28;20291;-55
2023/06/08 10:46:38;;;;;;;;;;;;;;;;;;5082940;28;19916;-55
2023/06/08 10:49:04;;;;;;;;;;;;;;;;;;5082948;28;19963;-55
2023/06/08 10:51:30;;;;;;;;;;;;;;;;;;5081974;28;20471;-58
2023/06/08 10:53:57;;;;;;;;;;;;;;;;;;5079705;28;20026;-55
2023/06/08 10:56:22;;;;;;;;;;;;;;;;;;5076010;28;19916;-55
2023/06/08 10:58:48;;;;;;;;;;;;;;;;;;5076714;28;19951;-55
2023/06/08 11:01:15;;;;;;;;;;;;;;;;;;5079756;28;19951;-55
2023/06/08 11:03:41;;;;;;;;;;;;;;;;;;5085525;28;20328;-55
2023/06/08 11:06:07;;;;;;;;;;;;;;;;;;5076565;28;19958;-53
2023/06/08 11:08:32;;;;;;;;;;;;;;;;;;5081578;28;19998;-54
2023/06/08 11:10:58;;;;;;;;;;;;;;;;;;5079168;28;19959;-55
2023/06/08 11:13:25;;;;;;;;;;;;;;;;;;5068299;28;20019;-55
2023/06/08 11:15:51;;;;;;;;;;;;;;;;;;5078595;28;20342;-55
2023/06/08 11:18:19;;;;;;;;;;;;;;;;;;5060302;28;20018;-55
2023/06/08 11:20:45;;;;;;;;;;;;;;;;;;5076963;28;19916;-53
2023/06/08 11:23:11;;;;;;;;;;;;;;;;;;5073425;28;21091;-53
2023/06/08 11:25:38;;;;;;;;;;;;;;;;;;5082658;28;19921;-54
2023/06/08 11:28:04;;;;;;;;;;;;;;;;;;5077112;28;20298;-56
2023/06/08 11:30:34;;;;;;;;;;;;;;;;;;5077629;28;20464;-56
2023/06/08 11:33:01;;;;;;;;;;;;;;;;;;5079279;28;19916;-56
2023/06/08 11:35:27;;;;;;;;;;;;;;;;;;5079001;28;20323;-55
2023/06/08 11:37:53;;;;;;;;;;;;;;;;;;5078961;28;19912;-55
2023/06/08 11:40:19;;;;;;;;;;;;;;;;;;5074987;28;19931;-53
2023/06/08 11:42:45;;;;;;;;;;;;;;;;;;5076698;28;19920;-54
2023/06/08 11:45:12;;;;;;;;;;;;;;;;;;5075432;28;19947;-54
2023/06/08 11:47:38;;;;;;;;;;;;;;;;;;5079674;28;19931;-54
2023/06/08 11:50:04;;;;;;;;;;;;;;;;;;5060798;28;20014;-54
2023/06/08 11:52:30;;;;;;;;;;;;;;;;;;5076039;28;19988;-54
2023/06/08 11:54:56;;;;;;;;;;;;;;;;;;5055816;28;19919;-55
2023/06/08 11:57:22;;;;;;;;;;;;;;;;;;5081116;28;20304;-54
2023/06/08 11:59:49;;;;;;;;;;;;;;;;;;5083757;28;19964;-54
2023/06/08 12:02:15;;;;;;;;;;;;;;;;;;5076228;28;20858;-54
2023/06/08 12:04:41;;;;;;;;;;;;;;;;;;5077360;28;20556;-54
2023/06/08 12:07:10;;;;;;;;;;;;;;;;;;5081239;28;19962;-54
2023/06/08 12:09:36;;;;;;;;;;;;;;;;;;5085914;28;20054;-54
2023/06/08 12:12:07;;;;;;;;;;;;;;;;;;5078480;28;20286;-54
2023/06/08 12:14:33;;;;;;;;;;;;;;;;;;5079510;28;19916;-54
2023/06/08 12:16:59;;;;;;;;;;;;;;;;;;5083962;28;19922;-54
2023/06/08 12:19:25;;;;;;;;;;;;;;;;;;5077738;28;20021;-55
2023/06/08 12:21:51;;;;;;;;;;;;;;;;;;5080962;28;20050;-55
2023/06/08 12:24:17;;;;;;;;;;;;;;;;;;5079768;28;20665;-55
2023/06/08 12:26:43;;;;;;;;;;;;;;;;;;5083267;28;20419;-55
2023/06/08 12:29:09;;;;;;;;;;;;;;;;;;5082974;28;19963;-56
2023/06/08 12:31:35;;;;;;;;;;;;;;;;;;5082450;28;19920;-56
2023/06/08 12:34:02;;;;;;;;;;;;;;;;;;5079565;28;20367;-57
2023/06/08 12:36:28;;;;;;;;;;;;;;;;;;5083264;28;20039;-60
2023/06/08 12:38:56;;;;;;;;;;;;;;;;;;5079149;28;19959;-60
2023/06/08 12:41:23;;;;;;;;;;;;;;;;;;5084030;28;19917;-60
2023/06/08 12:43:48;;;;;;;;;;;;;;;;;;5081405;28;19959;-60
2023/06/08 12:46:18;;;;;;;;;;;;;;;;;;5082083;28;20208;-56
2023/06/08 12:48:44;;;;;;;;;;;;;;;;;;5039346;28;20008;-57
2023/06/08 12:51:10;;;;;;;;;;;;;;;;;;5040341;28;19967;-57
2023/06/08 12:53:36;;;;;;;;;;;;;;;;;;5038500;28;19956;-57
2023/06/08 12:56:02;;;;;;;;;;;;;;;;;;5038242;28;20012;-56
2023/06/08 12:58:28;;;;;;;;;;;;;;;;;;5035264;28;20003;-58
2023/06/08 13:00:54;;;;;;;;;;;;;;;;;;5040333;28;19960;-57
2023/06/08 13:03:22;;;;;;;;;;;;;;;;;;5038767;28;19917;-57
2023/06/08 13:05:48;;;;;;;;;;;;;;;;;;5042426;28;19921;-59
2023/06/08 13:08:14;;;;;;;;;;;;;;;;;;5045408;28;19927;-57
2023/06/08 13:10:40;;;;;;;;;;;;;;;;;;5041479;28;19974;-57
2023/06/08 13:13:06;;;;;;;;;;;;;;;;;;5038833;28;19917;-56
2023/06/08 13:15:32;;;;;;;;;;;;;;;;;;5036856;28;19957;-56
2023/06/08 13:17:58;;;;;;;;;;;;;;;;;;5030500;28;20313;-56
2023/06/08 13:20:24;;;;;;;;;;;;;;;;;;5037224;28;20392;-56
2023/06/08 13:22:51;;;;;;;;;;;;;;;;;;5041432;28;19916;-56
2023/06/08 13:25:17;;;;;;;;;;;;;;;;;;5033455;28;20372;-56
2023/06/08 13:27:43;;;;;;;;;;;;;;;;;;5035654;28;20381;-56
2023/06/08 13:30:09;;;;;;;;;;;;;;;;;;5042345;28;20019;-57
2023/06/08 13:32:35;;;;;;;;;;;;;;;;;;5040144;28;19956;-55
2023/06/08 13:35:01;;;;;;;;;;;;;;;;;;5037003;28;19959;-55
2023/06/08 13:37:27;;;;;;;;;;;;;;;;;;5039627;28;19957;-55
2023/06/08 13:39:53;;;;;;;;;;;;;;;;;;5039994;28;19936;-58
2023/06/08 13:42:19;;;;;;;;;;;;;;;;;;5042264;28;19963;-58
2023/06/08 13:44:47;;;;;;;;;;;;;;;;;;5046432;28;19982;-57
2023/06/08 13:47:13;;;;;;;;;;;;;;;;;;5054948;28;20050;-57
2023/06/08 13:49:39;;;;;;;;;;;;;;;;;;5085841;28;20038;-57
2023/06/08 13:52:05;;;;;;;;;;;;;;;;;;5087550;28;19916;-56
2023/06/08 13:54:31;;;;;;;;;;;;;;;;;;5084026;28;19924;-57
2023/06/08 13:56:57;;;;;;;;;;;;;;;;;;5087673;28;19955;-57
2023/06/08 13:59:22;;;;;;;;;;;;;;;;;;5085777;28;20031;-58
2023/06/08 14:01:48;;;;;;;;;;;;;;;;;;5087444;28;20382;-58
2023/06/08 14:04:14;;;;;;;;;;;;;;;;;;5087432;28;20712;-57
2023/06/08 14:06:44;;;;;;;;;;;;;;;;;;5088304;28;20343;-57
2023/06/08 14:09:10;;;;;;;;;;;;;;;;;;5088101;28;19966;-58
2023/06/08 14:11:36;;;;;;;;;;;;;;;;;;5087453;28;19951;-57
2023/06/08 14:14:02;;;;;;;;;;;;;;;;;;5069784;28;19999;-58
2023/06/08 14:16:28;;;;;;;;;;;;;;;;;;5085832;28;19955;-57
2023/06/08 14:18:54;;;;;;;;;;;;;;;;;;5086813;28;20216;-57
2023/06/08 14:21:20;;;;;;;;;;;;;;;;;;5069295;28;19927;-58
2023/06/08 14:23:46;;;;;;;;;;;;;;;;;;5086998;28;19930;-58
2023/06/08 14:26:14;;;;;;;;;;;;;;;;;;5087592;28;19923;-57
2023/06/08 14:28:40;;;;;;;;;;;;;;;;;;5084836;28;19920;-58
2023/06/08 14:31:06;;;;;;;;;;;;;;;;;;5086979;28;20201;-58
2023/06/08 14:33:32;;;;;;;;;;;;;;;;;;5085519;28;20361;-58
2023/06/08 14:35:58;;;;;;;;;;;;;;;;;;5086587;28;20297;-57
2023/06/08 14:38:24;;;;;;;;;;;;;;;;;;5087595;28;19948;-58
2023/06/08 14:40:50;;;;;;;;;;;;;;;;;;5086630;28;20017;-58
2023/06/08 14:43:15;;;;;;;;;;;;;;;;;;5084433;28;19965;-58
2023/06/08 14:45:41;;;;;;;;;;;;;;;;;;5086386;28;19963;-58
2023/06/08 14:48:08;;;;;;;;;;;;;;;;;;5086363;28;19959;-58
2023/06/08 14:50:34;;;;;;;;;;;;;;;;;;5084003;28;19912;-58
2023/06/08 14:53:00;;;;;;;;;;;;;;;;;;5086465;28;19939;-58
2023/06/08 14:55:26;;;;;;;;;;;;;;;;;;5085084;28;19915;-59
2023/06/08 14:57:52;;;;;;;;;;;;;;;;;;5084364;28;20338;-58
2023/06/08 15:00:19;;;;;;;;;;;;;;;;;;5086658;28;20438;-59
2023/06/08 15:02:45;;;;;;;;;;;;;;;;;;5087027;28;20265;-58
2023/06/08 15:05:11;;;;;;;;;;;;;;;;;;5085026;28;19920;-57
2023/06/08 15:07:37;;;;;;;;;;;;;;;;;;5085403;28;19963;-56
2023/06/08 15:10:03;;;;;;;;;;;;;;;;;;5086475;28;19913;-56
2023/06/08 15:12:29;;;;;;;;;;;;;;;;;;5084408;28;19966;-56
2023/06/08 15:14:55;;;;;;;;;;;;;;;;;;5061440;28;20316;-57
2023/06/08 15:17:22;;;;;;;;;;;;;;;;;;5077808;28;19934;-57
2023/06/08 15:19:48;;;;;;;;;;;;;;;;;;5086602;28;20235;-57
2023/06/08 15:22:14;;;;;;;;;;;;;;;;;;5079964;28;19912;-56
2023/06/08 15:24:40;;;;;;;;;;;;;;;;;;5079484;28;19916;-57
2023/06/08 15:27:06;;;;;;;;;;;;;;;;;;5077225;28;19995;-56
2023/06/08 15:29:32;;;;;;;;;;;;;;;;;;5080029;28;20458;-56
2023/06/08 15:31:58;;;;;;;;;;;;;;;;;;5083479;28;19947;-56
2023/06/08 15:34:24;;;;;;;;;;;;;;;;;;5085377;28;19981;-57
2023/06/08 15:36:50;;;;;;;;;;;;;;;;;;5077729;28;19985;-56
2023/06/08 15:39:16;;;;;;;;;;;;;;;;;;5080067;28;19916;-57
2023/06/08 15:41:42;;;;;;;;;;;;;;;;;;5060577;28;19920;-56
2023/06/08 15:44:08;;;;;;;;;;;;;;;;;;5064259;28;20382;-56
2023/06/08 15:46:34;;;;;;;;;;;;;;;;;;5079123;28;19958;-56
2023/06/08 15:49:03;;;;;;;;;;;;;;;;;;5081410;28;20486;-57
2023/06/08 15:51:29;;;;;;;;;;;;;;;;;;5081829;28;20332;-57
2023/06/08 15:53:55;;;;;;;;;;;;;;;;;;5080145;28;19920;-57
2023/06/08 15:56:21;;;;;;;;;;;;;;;;;;5078163;28;19927;-56
2023/06/08 15:58:49;;;;;;;;;;;;;;;;;;5077924;28;20353;-57
2023/06/08 16:01:15;;;;;;;;;;;;;;;;;;5081445;28;20602;-56
2023/06/08 16:03:41;;;;;;;;;;;;;;;;;;5060486;28;20303;-57
2023/06/08 16:06:10;;;;;;;;;;;;;;;;;;5082132;28;19920;-57
2023/06/08 16:08:37;;;;;;;;;;;;;;;;;;5080506;28;20407;-57
2023/06/08 16:11:03;;;;;;;;;;;;;;;;;;5079900;28;19935;-57
2023/06/08 16:13:29;;;;;;;;;;;;;;;;;;5077592;28;20680;-58
2023/06/08 16:15:55;;;;;;;;;;;;;;;;;;5079526;28;19920;-58
2023/06/08 16:18:21;;;;;;;;;;;;;;;;;;5064589;28;20019;-57
2023/06/08 16:20:50;;;;;;;;;;;;;;;;;;5081311;28;19917;-57
2023/06/08 16:23:16;;;;;;;;;;;;;;;;;;5076537;28;19923;-57
2023/06/08 16:25:42;;;;;;;;;;;;;;;;;;5076074;28;20928;-57
2023/06/08 16:28:08;;;;;;;;;;;;;;;;;;5077149;28;19924;-58
2023/06/08 16:30:34;;;;;;;;;;;;;;;;;;5079782;28;19947;-58
2023/06/08 16:33:00;;;;;;;;;;;;;;;;;;5079326;28;19951;-58
2023/06/08 16:35:26;;;;;;;;;;;;;;;;;;5073307;28;20066;-57
2023/06/08 16:37:52;;;;;;;;;;;;;;;;;;5079905;28;20426;-57
2023/06/08 16:40:18;;;;;;;;;;;;;;;;;;5079001;28;19951;-58
2023/06/08 16:42:46;;;;;;;;;;;;;;;;;;5080329;28;20025;-57
2023/06/08 16:45:12;;;;;;;;;;;;;;;;;;5076788;28;20026;-57